Ilasco, Missouri
Current Conditions -  °F | °C
As of 8:54 PM on Tuesday 25 Nov 2014 (Local Time) from KUIN Reporting Station
Clear Clear  
Wind Chill: -6°   Ceiling: Unl
Heat Index: -3°   Visibility: 10mi
Dew Point: -7°   Wind: 5mph
Humidity: 75%   Direction: 140°SE
Pressure: 30.14"   Gusts: NA
Location:  39.7145°N, 91.4209°W
Report Text: KUIN 260254Z AUTO 14004KT 10SM CLR M03/M07 A3014 RMK AO2 SLP213 T10281067 58000
Loading
Personal Weather Stations






























Interactive Weather Map New forecast layout! Learn more

10-Day Weather Forecast

Advertisements
Track Severe Weather on mobile